sensor_id;sensor_type;location;lat;lon;timestamp;pressure;altitude;pressure_sealevel;temperature;humidity
11987;BME280;6053;51.382;6.768;2023-07-31T00:01:43;100748.41;;;17.58;100.00
11987;BME280;6053;51.382;6.768;2023-07-31T00:04:21;100742.25;;;17.31;100.00
11987;BME280;6053;51.382;6.768;2023-07-31T00:06:49;100741.41;;;17.71;100.00
11987;BME280;6053;51.382;6.768;2023-07-31T00:09:18;100735.84;;;17.61;100.00
11987;BME280;6053;51.382;6.768;2023-07-31T00:11:47;100743.41;;;17.81;100.00
11987;BME280;6053;51.382;6.768;2023-07-31T00:14:17;100734.97;;;17.76;100.00
11987;BME280;6053;51.382;6.768;2023-07-31T00:16:45;100741.88;;;18.29;100.00
11987;BME280;6053;51.382;6.768;2023-07-31T00:19:17;100729.41;;;17.19;100.00
11987;BME280;6053;51.382;6.768;2023-07-31T00:21:45;100721.59;;;17.27;100.00
11987;BME280;6053;51.382;6.768;2023-07-31T00:24:14;100739.19;;;17.58;100.00
11987;BME280;6053;51.382;6.768;2023-07-31T00:26:48;100738.63;;;17.76;100.00
11987;BME280;6053;51.382;6.768;2023-07-31T00:29:19;100736.13;;;17.34;100.00
11987;BME280;6053;51.382;6.768;2023-07-31T00:31:47;100734.44;;;17.17;100.00
11987;BME280;6053;51.382;6.768;2023-07-31T00:34:19;100732.78;;;17.42;100.00
11987;BME280;6053;51.382;6.768;2023-07-31T00:36:48;100735.84;;;17.76;100.00
11987;BME280;6053;51.382;6.768;2023-07-31T00:39:19;100730.56;;;17.54;100.00
11987;BME280;6053;51.382;6.768;2023-07-31T00:41:48;100733.84;;;17.97;100.00
11987;BME280;6053;51.382;6.768;2023-07-31T00:44:18;100729.41;;;17.19;100.00
11987;BME280;6053;51.382;6.768;2023-07-31T00:46:46;100729.19;;;17.77;100.00
11987;BME280;6053;51.382;6.768;2023-07-31T00:49:23;100729.41;;;17.60;100.00
11987;BME280;6053;51.382;6.768;2023-07-31T00:51:51;100735.28;;;17.64;100.00
11987;BME280;6053;51.382;6.768;2023-07-31T00:54:23;100730.00;;;17.78;100.00
11987;BME280;6053;51.382;6.768;2023-07-31T00:56:53;100729.41;;;17.25;100.00
11987;BME280;6053;51.382;6.768;2023-07-31T00:59:24;100731.03;;;18.07;100.00
11987;BME280;6053;51.382;6.768;2023-07-31T01:01:52;100731.50;;;18.45;100.00
11987;BME280;6053;51.382;6.768;2023-07-31T01:04:21;100730.75;;;18.19;100.00
11987;BME280;6053;51.382;6.768;2023-07-31T01:07:06;100735.69;;;18.37;100.00
11987;BME280;6053;51.382;6.768;2023-07-31T01:09:47;100725.66;;;18.36;100.00
11987;BME280;6053;51.382;6.768;2023-07-31T01:12:24;100722.25;;;18.50;100.00
11987;BME280;6053;51.382;6.768;2023-07-31T01:15:08;100728.22;;;18.88;100.00
11987;BME280;6053;51.382;6.768;2023-07-31T01:17:38;100722.13;;;18.05;100.00
11987;BME280;6053;51.382;6.768;2023-07-31T01:20:22;100722.09;;;18.16;100.00
11987;BME280;6053;51.382;6.768;2023-07-31T01:26:11;100723.09;;;18.50;100.00
11987;BME280;6053;51.382;6.768;2023-07-31T01:28:49;100729.91;;;18.19;100.00
11987;BME280;6053;51.382;6.768;2023-07-31T01:31:22;100741.63;;;18.21;100.00
11987;BME280;6053;51.382;6.768;2023-07-31T01:33:59;100726.59;;;18.11;100.00
11987;BME280;6053;51.382;6.768;2023-07-31T01:36:29;100729.31;;;18.27;100.00
11987;BME280;6053;51.382;6.768;2023-07-31T01:39:02;100724.69;;;17.51;100.00
11987;BME280;6053;51.382;6.768;2023-07-31T01:41:35;100721.88;;;18.02;100.00
11987;BME280;6053;51.382;6.768;2023-07-31T01:44:04;100721.03;;;18.01;100.00
11987;BME280;6053;51.382;6.768;2023-07-31T01:46:36;100717.91;;;18.18;100.00
11987;BME280;6053;51.382;6.768;2023-07-31T01:49:06;100715.56;;;18.46;100.00
11987;BME280;6053;51.382;6.768;2023-07-31T01:51:40;100713.53;;;18.72;100.00
11987;BME280;6053;51.382;6.768;2023-07-31T01:54:09;100710.41;;;18.08;100.00
11987;BME280;6053;51.382;6.768;2023-07-31T01:56:39;100708.75;;;18.67;100.00
11987;BME280;6053;51.382;6.768;2023-07-31T01:59:08;100703.75;;;17.79;100.00
11987;BME280;6053;51.382;6.768;2023-07-31T02:01:37;100706.53;;;17.84;100.00
11987;BME280;6053;51.382;6.768;2023-07-31T02:04:06;100704.00;;;17.93;100.00
11987;BME280;6053;51.382;6.768;2023-07-31T02:06:37;100710.88;;;18.36;100.00
11987;BME280;6053;51.382;6.768;2023-07-31T02:09:12;100706.56;;;17.58;100.00
11987;BME280;6053;51.382;6.768;2023-07-31T02:11:42;100706.25;;;17.60;100.00
11987;BME280;6053;51.382;6.768;2023-07-31T02:14:11;100695.66;;;17.16;100.00
11987;BME280;6053;51.382;6.768;2023-07-31T02:16:41;100704.25;;;18.11;100.00
11987;BME280;6053;51.382;6.768;2023-07-31T02:19:11;100708.50;;;17.78;100.00
11987;BME280;6053;51.382;6.768;2023-07-31T02:21:39;100695.09;;;17.50;100.00
11987;BME280;6053;51.382;6.768;2023-07-31T02:24:08;100700.69;;;17.80;100.00
11987;BME280;6053;51.382;6.768;2023-07-31T02:26:36;100698.69;;;17.96;100.00
11987;BME280;6053;51.382;6.768;2023-07-31T02:29:07;100694.19;;;18.10;100.00
11987;BME280;6053;51.382;6.768;2023-07-31T02:31:35;100690.34;;;17.86;100.00
11987;BME280;6053;51.382;6.768;2023-07-31T02:34:10;100696.22;;;17.54;100.00
11987;BME280;6053;51.382;6.768;2023-07-31T02:36:45;100685.88;;;18.65;100.00
11987;BME280;6053;51.382;6.768;2023-07-31T02:39:14;100683.66;;;17.82;100.00
11987;BME280;6053;51.382;6.768;2023-07-31T02:41:42;100686.69;;;18.11;100.00
11987;BME280;6053;51.382;6.768;2023-07-31T02:44:12;100688.41;;;18.61;100.00
11987;BME280;6053;51.382;6.768;2023-07-31T02:46:44;100688.84;;;18.89;100.00
11987;BME280;6053;51.382;6.768;2023-07-31T02:49:16;100688.19;;;18.48;100.00
11987;BME280;6053;51.382;6.768;2023-07-31T02:51:48;100684.22;;;17.84;100.00
11987;BME280;6053;51.382;6.768;2023-07-31T02:54:16;100690.81;;;18.19;100.00
11987;BME280;6053;51.382;6.768;2023-07-31T02:56:45;100681.09;;;18.11;100.00
11987;BME280;6053;51.382;6.768;2023-07-31T02:59:23;100678.25;;;18.21;100.00
11987;BME280;6053;51.382;6.768;2023-07-31T03:01:52;100672.91;;;18.30;100.00
11987;BME280;6053;51.382;6.768;2023-07-31T03:04:24;100666.53;;;18.19;100.00
11987;BME280;6053;51.382;6.768;2023-07-31T03:06:54;100673.44;;;18.92;100.00
11987;BME280;6053;51.382;6.768;2023-07-31T03:09:22;100677.69;;;18.24;100.00
11987;BME280;6053;51.382;6.768;2023-07-31T03:11:57;100671.41;;;17.52;100.00
11987;BME280;6053;51.382;6.768;2023-07-31T03:14:27;100667.19;;;17.80;100.00
11987;BME280;6053;51.382;6.768;2023-07-31T03:16:56;100665.13;;;18.17;100.00
11987;BME280;6053;51.382;6.768;2023-07-31T03:19:24;100665.09;;;18.32;100.00
11987;BME280;6053;51.382;6.768;2023-07-31T03:21:53;100664.06;;;18.02;100.00
11987;BME280;6053;51.382;6.768;2023-07-31T03:24:22;100660.81;;;18.99;100.00
11987;BME280;6053;51.382;6.768;2023-07-31T03:26:50;100671.69;;;18.51;100.00
11987;BME280;6053;51.382;6.768;2023-07-31T03:29:19;100658.41;;;18.23;100.00
11987;BME280;6053;51.382;6.768;2023-07-31T03:31:55;100661.25;;;18.12;100.00
11987;BME280;6053;51.382;6.768;2023-07-31T03:34:24;100670.06;;;18.40;100.00
11987;BME280;6053;51.382;6.768;2023-07-31T03:36:52;100661.06;;;17.83;100.00
11987;BME280;6053;51.382;6.768;2023-07-31T03:39:24;100662.44;;;17.86;100.00
11987;BME280;6053;51.382;6.768;2023-07-31T03:41:52;100657.16;;;18.54;100.00
11987;BME280;6053;51.382;6.768;2023-07-31T03:44:24;100663.34;;;18.46;100.00
11987;BME280;6053;51.382;6.768;2023-07-31T03:46:52;100663.91;;;18.43;100.00
11987;BME280;6053;51.382;6.768;2023-07-31T03:49:25;100645.25;;;18.88;100.00
11987;BME280;6053;51.382;6.768;2023-07-31T03:52:03;100656.84;;;18.56;100.00
11987;BME280;6053;51.382;6.768;2023-07-31T03:54:32;100663.78;;;18.64;100.00
11987;BME280;6053;51.382;6.768;2023-07-31T03:57:11;100658.19;;;18.69;100.00
11987;BME280;6053;51.382;6.768;2023-07-31T03:59:46;100649.28;;;17.97;100.00
11987;BME280;6053;51.382;6.768;2023-07-31T04:02:14;100641.75;;;17.97;100.00
11987;BME280;6053;51.382;6.768;2023-07-31T04:04:44;100651.78;;;18.63;100.00
11987;BME280;6053;51.382;6.768;2023-07-31T04:07:23;100651.81;;;17.93;100.00
11987;BME280;6053;51.382;6.768;2023-07-31T04:09:59;100644.66;;;18.42;100.00
11987;BME280;6053;51.382;6.768;2023-07-31T04:12:36;100642.00;;;18.11;100.00
11987;BME280;6053;51.382;6.768;2023-07-31T04:15:06;100640.56;;;18.73;100.00
11987;BME280;6053;51.382;6.768;2023-07-31T04:17:34;100642.38;;;18.44;100.00
11987;BME280;6053;51.382;6.768;2023-07-31T04:20:05;100636.66;;;18.74;100.00
11987;BME280;6053;51.382;6.768;2023-07-31T04:22:34;100624.09;;;18.67;100.00
11987;BME280;6053;51.382;6.768;2023-07-31T04:25:06;100626.31;;;18.25;100.00
11987;BME280;6053;51.382;6.768;2023-07-31T04:27:38;100623.47;;;18.80;100.00
11987;BME280;6053;51.382;6.768;2023-07-31T04:30:08;100619.09;;;18.64;100.00
11987;BME280;6053;51.382;6.768;2023-07-31T04:32:39;100618.38;;;18.92;100.00
11987;BME280;6053;51.382;6.768;2023-07-31T04:35:12;100622.81;;;18.93;100.00
11987;BME280;6053;51.382;6.768;2023-07-31T04:37:43;100617.13;;;18.64;100.00
11987;BME280;6053;51.382;6.768;2023-07-31T04:40:16;100621.88;;;18.64;100.00
11987;BME280;6053;51.382;6.768;2023-07-31T04:42:47;100615.34;;;18.83;100.00
11987;BME280;6053;51.382;6.768;2023-07-31T04:45:18;100612.34;;;18.20;100.00
11987;BME280;6053;51.382;6.768;2023-07-31T04:47:50;100609.41;;;18.95;100.00
11987;BME280;6053;51.382;6.768;2023-07-31T04:50:20;100606.28;;;19.02;100.00
11987;BME280;6053;51.382;6.768;2023-07-31T04:52:51;100605.47;;;18.02;100.00
11987;BME280;6053;51.382;6.768;2023-07-31T04:55:23;100600.88;;;18.27;100.00
11987;BME280;6053;51.382;6.768;2023-07-31T04:57:52;100595.53;;;18.35;100.00
11987;BME280;6053;51.382;6.768;2023-07-31T05:00:23;100593.44;;;18.07;100.00
11987;BME280;6053;51.382;6.768;2023-07-31T05:02:52;100594.41;;;18.36;100.00
11987;BME280;6053;51.382;6.768;2023-07-31T05:05:31;100586.00;;;18.42;100.00
11987;BME280;6053;51.382;6.768;2023-07-31T05:08:00;100582.06;;;18.87;100.00
11987;BME280;6053;51.382;6.768;2023-07-31T05:10:28;100586.19;;;18.11;100.00
11987;BME280;6053;51.382;6.768;2023-07-31T05:13:00;100583.06;;;18.62;100.00
11987;BME280;6053;51.382;6.768;2023-07-31T05:15:29;100583.66;;;18.59;100.00
11987;BME280;6053;51.382;6.768;2023-07-31T05:18:03;100571.16;;;18.46;100.00
11987;BME280;6053;51.382;6.768;2023-07-31T05:20:36;100575.59;;;18.52;100.00
11987;BME280;6053;51.382;6.768;2023-07-31T05:23:04;100570.50;;;18.15;100.00
11987;BME280;6053;51.382;6.768;2023-07-31T05:25:33;100574.31;;;18.79;100.00
11987;BME280;6053;51.382;6.768;2023-07-31T05:28:16;100572.34;;;18.79;100.00
11987;BME280;6053;51.382;6.768;2023-07-31T05:30:45;100570.13;;;18.32;100.00
11987;BME280;6053;51.382;6.768;2023-07-31T05:33:13;100573.34;;;18.05;100.00
11987;BME280;6053;51.382;6.768;2023-07-31T05:35:46;100569.63;;;18.25;100.00
11987;BME280;6053;51.382;6.768;2023-07-31T05:38:15;100566.31;;;19.01;100.00
11987;BME280;6053;51.382;6.768;2023-07-31T05:40:47;100562.97;;;18.99;100.00
11987;BME280;6053;51.382;6.768;2023-07-31T05:43:16;100555.56;;;19.14;100.00
11987;BME280;6053;51.382;6.768;2023-07-31T05:45:44;100555.59;;;18.35;100.00
11987;BME280;6053;51.382;6.768;2023-07-31T05:48:13;100548.38;;;18.24;100.00
11987;BME280;6053;51.382;6.768;2023-07-31T05:50:43;100554.00;;;19.02;100.00
11987;BME280;6053;51.382;6.768;2023-07-31T05:53:13;100548.28;;;17.95;100.00
11987;BME280;6053;51.382;6.768;2023-07-31T05:55:45;100543.13;;;18.61;100.00
11987;BME280;6053;51.382;6.768;2023-07-31T05:58:16;100534.53;;;18.92;100.00
11987;BME280;6053;51.382;6.768;2023-07-31T06:00:48;100530.81;;;18.97;100.00
11987;BME280;6053;51.382;6.768;2023-07-31T06:03:16;100529.34;;;18.75;100.00
11987;BME280;6053;51.382;6.768;2023-07-31T06:05:45;100532.19;;;18.65;100.00
11987;BME280;6053;51.382;6.768;2023-07-31T06:08:18;100517.69;;;18.97;100.00
11987;BME280;6053;51.382;6.768;2023-07-31T06:10:47;100530.69;;;19.12;100.00
11987;BME280;6053;51.382;6.768;2023-07-31T06:13:15;100522.75;;;18.17;100.00
11987;BME280;6053;51.382;6.768;2023-07-31T06:15:47;100523.75;;;18.70;100.00
11987;BME280;6053;51.382;6.768;2023-07-31T06:18:18;100528.28;;;19.00;100.00
11987;BME280;6053;51.382;6.768;2023-07-31T06:20:47;100533.94;;;18.95;100.00
11987;BME280;6053;51.382;6.768;2023-07-31T06:23:22;100532.88;;;18.86;100.00
11987;BME280;6053;51.382;6.768;2023-07-31T06:25:50;100534.28;;;18.49;100.00
11987;BME280;6053;51.382;6.768;2023-07-31T06:28:23;100530.66;;;18.49;100.00
11987;BME280;6053;51.382;6.768;2023-07-31T06:30:58;100541.25;;;18.47;100.00
11987;BME280;6053;51.382;6.768;2023-07-31T06:33:28;100530.34;;;18.50;100.00
11987;BME280;6053;51.382;6.768;2023-07-31T06:36:00;100535.09;;;18.50;100.00
11987;BME280;6053;51.382;6.768;2023-07-31T06:38:29;100531.16;;;18.11;100.00
11987;BME280;6053;51.382;6.768;2023-07-31T06:40:58;100537.34;;;18.03;100.00
11987;BME280;6053;51.382;6.768;2023-07-31T06:43:27;100527.44;;;17.66;100.00
11987;BME280;6053;51.382;6.768;2023-07-31T06:45:56;100537.47;;;18.27;100.00
11987;BME280;6053;51.382;6.768;2023-07-31T06:48:27;100536.94;;;18.25;100.00
11987;BME280;6053;51.382;6.768;2023-07-31T06:50:56;100534.44;;;17.59;100.00
11987;BME280;6053;51.382;6.768;2023-07-31T06:53:25;100526.59;;;18.31;100.00
11987;BME280;6053;51.382;6.768;2023-07-31T06:56:01;100534.34;;;18.39;100.00
11987;BME280;6053;51.382;6.768;2023-07-31T06:58:35;100536.59;;;18.76;100.00
11987;BME280;6053;51.382;6.768;2023-07-31T07:01:07;100530.72;;;18.78;100.00
11987;BME280;6053;51.382;6.768;2023-07-31T07:03:38;100522.66;;;19.05;100.00
11987;BME280;6053;51.382;6.768;2023-07-31T07:06:09;100530.81;;;18.63;100.00
11987;BME280;6053;51.382;6.768;2023-07-31T07:08:38;100530.09;;;18.02;100.00
11987;BME280;6053;51.382;6.768;2023-07-31T07:11:08;100528.81;;;18.29;100.00
11987;BME280;6053;51.382;6.768;2023-07-31T07:13:43;100528.44;;;17.96;100.00
11987;BME280;6053;51.382;6.768;2023-07-31T07:16:11;100520.16;;;17.76;100.00
11987;BME280;6053;51.382;6.768;2023-07-31T07:18:43;100519.25;;;17.90;100.00
11987;BME280;6053;51.382;6.768;2023-07-31T07:21:24;100522.69;;;18.27;100.00
11987;BME280;6053;51.382;6.768;2023-07-31T07:23:56;100522.88;;;17.96;100.00
11987;BME280;6053;51.382;6.768;2023-07-31T07:26:29;100517.22;;;19.14;100.00
11987;BME280;6053;51.382;6.768;2023-07-31T07:29:02;100516.50;;;18.35;100.00
11987;BME280;6053;51.382;6.768;2023-07-31T07:31:33;100519.06;;;18.26;100.00
11987;BME280;6053;51.382;6.768;2023-07-31T07:34:03;100509.88;;;17.66;100.00
11987;BME280;6053;51.382;6.768;2023-07-31T07:36:32;100500.34;;;17.72;100.00
11987;BME280;6053;51.382;6.768;2023-07-31T07:39:00;100507.81;;;18.36;100.00
11987;BME280;6053;51.382;6.768;2023-07-31T07:41:30;100508.91;;;17.96;100.00
11987;BME280;6053;51.382;6.768;2023-07-31T07:44:02;100511.00;;;17.60;100.00
11987;BME280;6053;51.382;6.768;2023-07-31T07:46:30;100515.25;;;17.47;100.00
11987;BME280;6053;51.382;6.768;2023-07-31T07:49:05;100514.22;;;18.37;100.00
11987;BME280;6053;51.382;6.768;2023-07-31T07:51:34;100508.31;;;18.49;100.00
11987;BME280;6053;51.382;6.768;2023-07-31T07:54:05;100502.56;;;18.30;100.00
11987;BME280;6053;51.382;6.768;2023-07-31T07:56:41;100506.25;;;17.60;100.00
11987;BME280;6053;51.382;6.768;2023-07-31T07:59:10;100504.81;;;17.73;100.00
11987;BME280;6053;51.382;6.768;2023-07-31T08:01:38;100504.28;;;18.60;100.00
11987;BME280;6053;51.382;6.768;2023-07-31T08:04:07;100508.28;;;18.09;100.00
11987;BME280;6053;51.382;6.768;2023-07-31T08:06:36;100511.13;;;18.44;100.00
11987;BME280;6053;51.382;6.768;2023-07-31T08:09:08;100492.81;;;18.27;100.00
11987;BME280;6053;51.382;6.768;2023-07-31T08:11:38;100490.44;;;18.05;100.00
11987;BME280;6053;51.382;6.768;2023-07-31T08:14:06;100496.94;;;18.74;100.00
11987;BME280;6053;51.382;6.768;2023-07-31T08:16:37;100481.94;;;18.60;100.00
11987;BME280;6053;51.382;6.768;2023-07-31T08:19:07;100481.06;;;18.30;100.00
11987;BME280;6053;51.382;6.768;2023-07-31T08:21:35;100481.91;;;18.31;100.00
11987;BME280;6053;51.382;6.768;2023-07-31T08:24:04;100482.44;;;17.88;100.00
11987;BME280;6053;51.382;6.768;2023-07-31T08:26:33;100471.31;;;17.08;100.00
11987;BME280;6053;51.382;6.768;2023-07-31T08:29:03;100475.41;;;18.01;100.00
11987;BME280;6053;51.382;6.768;2023-07-31T08:31:31;100472.69;;;17.86;100.00
11987;BME280;6053;51.382;6.768;2023-07-31T08:34:00;100474.22;;;18.12;100.00
11987;BME280;6053;51.382;6.768;2023-07-31T08:36:32;100485.59;;;19.19;100.00
11987;BME280;6053;51.382;6.768;2023-07-31T08:39:01;100475.44;;;18.75;100.00
11987;BME280;6053;51.382;6.768;2023-07-31T08:41:31;100479.72;;;18.23;100.00
11987;BME280;6053;51.382;6.768;2023-07-31T08:44:03;100488.75;;;18.49;100.00
11987;BME280;6053;51.382;6.768;2023-07-31T08:46:33;100481.44;;;18.19;100.00
11987;BME280;6053;51.382;6.768;2023-07-31T08:49:04;100474.88;;;17.34;100.00
11987;BME280;6053;51.382;6.768;2023-07-31T08:51:34;100479.03;;;17.97;100.00
11987;BME280;6053;51.382;6.768;2023-07-31T08:54:03;100478.44;;;18.44;100.00
11987;BME280;6053;51.382;6.768;2023-07-31T08:56:35;100474.13;;;18.23;100.00
11987;BME280;6053;51.382;6.768;2023-07-31T08:59:07;100472.13;;;17.84;100.00
11987;BME280;6053;51.382;6.768;2023-07-31T09:01:42;100476.13;;;17.62;100.00
11987;BME280;6053;51.382;6.768;2023-07-31T09:04:13;100481.19;;;18.10;100.00
11987;BME280;6053;51.382;6.768;2023-07-31T09:06:45;100477.94;;;17.23;100.00
11987;BME280;6053;51.382;6.768;2023-07-31T09:09:27;100482.03;;;18.84;100.00
11987;BME280;6053;51.382;6.768;2023-07-31T09:11:58;100478.56;;;17.84;100.00
11987;BME280;6053;51.382;6.768;2023-07-31T09:14:31;100473.84;;;17.80;100.00
11987;BME280;6053;51.382;6.768;2023-07-31T09:17:00;100478.41;;;17.55;100.00
11987;BME280;6053;51.382;6.768;2023-07-31T09:19:34;100478.28;;;17.86;100.00
11987;BME280;6053;51.382;6.768;2023-07-31T09:22:07;100472.13;;;17.84;100.00
11987;BME280;6053;51.382;6.768;2023-07-31T09:24:35;100482.09;;;18.00;100.00
11987;BME280;6053;51.382;6.768;2023-07-31T09:27:05;100472.81;;;17.50;100.00
11987;BME280;6053;51.382;6.768;2023-07-31T09:29:43;100469.34;;;17.84;100.00
11987;BME280;6053;51.382;6.768;2023-07-31T09:32:16;100464.44;;;18.49;100.00
11987;BME280;6053;51.382;6.768;2023-07-31T09:34:45;100459.25;;;18.72;100.00
11987;BME280;6053;51.382;6.768;2023-07-31T09:37:14;100453.13;;;18.30;100.00
11987;BME280;6053;51.382;6.768;2023-07-31T09:39:48;100455.69;;;17.87;100.00
11987;BME280;6053;51.382;6.768;2023-07-31T09:42:33;100451.84;;;18.18;100.00
11987;BME280;6053;51.382;6.768;2023-07-31T09:45:11;100445.28;;;17.98;100.00
11987;BME280;6053;51.382;6.768;2023-07-31T09:47:47;100447.75;;;18.05;100.00
11987;BME280;6053;51.382;6.768;2023-07-31T09:50:16;100439.63;;;18.77;100.00
11987;BME280;6053;51.382;6.768;2023-07-31T09:52:48;100448.34;;;18.36;100.00
11987;BME280;6053;51.382;6.768;2023-07-31T09:55:17;100440.03;;;17.92;100.00
11987;BME280;6053;51.382;6.768;2023-07-31T09:57:47;100438.13;;;17.82;100.00
11987;BME280;6053;51.382;6.768;2023-07-31T10:00:20;100452.34;;;18.25;100.00
11987;BME280;6053;51.382;6.768;2023-07-31T10:02:52;100445.75;;;18.79;100.00
11987;BME280;6053;51.382;6.768;2023-07-31T10:05:21;100445.94;;;18.58;100.00
11987;BME280;6053;51.382;6.768;2023-07-31T10:07:53;100448.53;;;18.10;100.00
11987;BME280;6053;51.382;6.768;2023-07-31T10:10:24;100452.13;;;18.16;100.00
11987;BME280;6053;51.382;6.768;2023-07-31T10:12:56;100446.19;;;17.88;100.00
11987;BME280;6053;51.382;6.768;2023-07-31T10:15:26;100439.16;;;17.96;100.00
11987;BME280;6053;51.382;6.768;2023-07-31T10:17:59;100456.53;;;18.61;100.00
11987;BME280;6053;51.382;6.768;2023-07-31T10:20:28;100444.78;;;17.86;100.00
11987;BME280;6053;51.382;6.768;2023-07-31T10:22:57;100442.75;;;18.36;100.00
11987;BME280;6053;51.382;6.768;2023-07-31T10:25:36;100442.25;;;17.89;100.00
11987;BME280;6053;51.382;6.768;2023-07-31T10:28:05;100439.78;;;17.83;100.00
11987;BME280;6053;51.382;6.768;2023-07-31T10:30:36;100444.06;;;18.14;100.00
11987;BME280;6053;51.382;6.768;2023-07-31T10:33:06;100441.19;;;17.75;100.00
11987;BME280;6053;51.382;6.768;2023-07-31T10:35:38;100445.09;;;19.16;100.00
11987;BME280;6053;51.382;6.768;2023-07-31T10:38:10;100444.72;;;18.35;100.00
11987;BME280;6053;51.382;6.768;2023-07-31T10:40:40;100437.06;;;18.80;100.00
11987;BME280;6053;51.382;6.768;2023-07-31T10:43:09;100442.78;;;18.94;100.00
11987;BME280;6053;51.382;6.768;2023-07-31T10:45:42;100439.38;;;18.39;100.00
11987;BME280;6053;51.382;6.768;2023-07-31T10:48:13;100443.69;;;19.38;100.00
11987;BME280;6053;51.382;6.768;2023-07-31T10:50:50;100440.38;;;19.36;100.00
11987;BME280;6053;51.382;6.768;2023-07-31T10:53:27;100429.41;;;18.62;100.00
11987;BME280;6053;51.382;6.768;2023-07-31T10:56:03;100433.72;;;18.49;100.00
11987;BME280;6053;51.382;6.768;2023-07-31T10:58:33;100432.56;;;18.84;100.00
11987;BME280;6053;51.382;6.768;2023-07-31T11:01:05;100440.97;;;19.33;100.00
11987;BME280;6053;51.382;6.768;2023-07-31T11:03:45;100428.97;;;19.08;100.00
11987;BME280;6053;51.382;6.768;2023-07-31T11:06:14;100426.47;;;18.48;100.00
11987;BME280;6053;51.382;6.768;2023-07-31T11:08:47;100422.75;;;18.58;100.00
11987;BME280;6053;51.382;6.768;2023-07-31T11:11:18;100423.63;;;18.53;100.00
11987;BME280;6053;51.382;6.768;2023-07-31T11:13:52;100420.47;;;19.18;100.00
11987;BME280;6053;51.382;6.768;2023-07-31T11:16:25;100427.50;;;18.87;100.00
11987;BME280;6053;51.382;6.768;2023-07-31T11:19:00;100426.41;;;18.53;100.00
11987;BME280;6053;51.382;6.768;2023-07-31T11:21:29;100432.03;;;19.06;100.00
11987;BME280;6053;51.382;6.768;2023-07-31T11:24:01;100419.59;;;19.18;100.00
11987;BME280;6053;51.382;6.768;2023-07-31T11:26:29;100425.44;;;18.97;100.00
11987;BME280;6053;51.382;6.768;2023-07-31T11:29:01;100426.72;;;18.81;100.00
11987;BME280;6053;51.382;6.768;2023-07-31T11:31:42;100425.66;;;18.77;100.00
11987;BME280;6053;51.382;6.768;2023-07-31T11:34:11;100419.91;;;19.16;100.00
11987;BME280;6053;51.382;6.768;2023-07-31T11:36:53;100425.88;;;19.76;100.00
11987;BME280;6053;51.382;6.768;2023-07-31T11:39:22;100422.03;;;19.24;100.00
11987;BME280;6053;51.382;6.768;2023-07-31T11:42:02;100417.78;;;19.32;100.00
11987;BME280;6053;51.382;6.768;2023-07-31T11:44:45;100423.44;;;19.03;100.00
11987;BME280;6053;51.382;6.768;2023-07-31T11:47:17;100425.94;;;19.28;100.00
11987;BME280;6053;51.382;6.768;2023-07-31T11:49:46;100414.81;;;18.41;100.00
11987;BME280;6053;51.382;6.768;2023-07-31T11:52:15;100426.44;;;18.82;100.00
11987;BME280;6053;51.382;6.768;2023-07-31T11:54:50;100414.22;;;19.02;100.00
11987;BME280;6053;51.382;6.768;2023-07-31T11:57:19;100425.31;;;19.07;100.00
11987;BME280;6053;51.382;6.768;2023-07-31T11:59:49;100418.75;;;19.41;100.00
11987;BME280;6053;51.382;6.768;2023-07-31T12:02:25;100420.44;;;18.94;100.00
11987;BME280;6053;51.382;6.768;2023-07-31T12:04:54;100415.81;;;19.08;100.00
11987;BME280;6053;51.382;6.768;2023-07-31T12:07:26;100418.88;;;18.83;100.00
11987;BME280;6053;51.382;6.768;2023-07-31T12:10:04;100409.25;;;18.94;100.00
11987;BME280;6053;51.382;6.768;2023-07-31T12:12:32;100409.88;;;18.57;100.00
11987;BME280;6053;51.382;6.768;2023-07-31T12:15:21;100407.31;;;19.19;100.00
11987;BME280;6053;51.382;6.768;2023-07-31T12:17:51;100404.25;;;19.39;100.00
11987;BME280;6053;51.382;6.768;2023-07-31T12:20:30;100408.97;;;19.63;100.00
11987;BME280;6053;51.382;6.768;2023-07-31T12:23:00;100409.25;;;19.61;100.00
11987;BME280;6053;51.382;6.768;2023-07-31T12:25:45;100391.78;;;18.83;100.00
11987;BME280;6053;51.382;6.768;2023-07-31T12:28:17;100392.91;;;19.06;100.00
11987;BME280;6053;51.382;6.768;2023-07-31T12:30:50;100390.91;;;18.88;100.00
11987;BME280;6053;51.382;6.768;2023-07-31T12:33:22;100383.59;;;18.92;100.00
11987;BME280;6053;51.382;6.768;2023-07-31T12:36:02;100392.84;;;18.58;100.00
11987;BME280;6053;51.382;6.768;2023-07-31T12:38:31;100394.19;;;19.14;100.00
11987;BME280;6053;51.382;6.768;2023-07-31T12:41:02;100391.72;;;19.13;100.00
11987;BME280;6053;51.382;6.768;2023-07-31T12:43:32;100389.44;;;19.15;100.00
11987;BME280;6053;51.382;6.768;2023-07-31T12:46:06;100402.28;;;19.40;100.00
11987;BME280;6053;51.382;6.768;2023-07-31T12:48:37;100392.25;;;19.15;100.00
11987;BME280;6053;51.382;6.768;2023-07-31T12:51:06;100391.41;;;19.14;100.00
11987;BME280;6053;51.382;6.768;2023-07-31T12:53:35;100389.66;;;18.41;100.00
11987;BME280;6053;51.382;6.768;2023-07-31T12:56:04;100395.75;;;19.25;100.00
11987;BME280;6053;51.382;6.768;2023-07-31T12:58:35;100387.88;;;19.27;100.00
11987;BME280;6053;51.382;6.768;2023-07-31T13:01:07;100381.16;;;19.71;100.00
11987;BME280;6053;51.382;6.768;2023-07-31T13:03:46;100369.19;;;19.47;100.00
11987;BME280;6053;51.382;6.768;2023-07-31T13:06:26;100368.38;;;19.84;100.00
11987;BME280;6053;51.382;6.768;2023-07-31T13:08:55;100354.91;;;19.86;100.00
11987;BME280;6053;51.382;6.768;2023-07-31T13:11:23;100349.88;;;19.26;100.00
11987;BME280;6053;51.382;6.768;2023-07-31T13:13:54;100362.88;;;19.79;100.00
11987;BME280;6053;51.382;6.768;2023-07-31T13:16:29;100345.72;;;19.24;100.00